Time;durP1;ratioP1;P1;durP2;ratioP2;P2;SDS_P1;SDS_P2;PMS_P1;PMS_P2;Temp;Humidity;BMP_temperature;BMP_pressure;BME280_temperature;BME280_humidity;BME280_pressure;Samples;Min_cycle;Max_cycle;Signal;HPM_P1;HPM_P2
2023/08/30 00:00:21;;;;;;;3.17;1.85;;;19.70;90.80;;;;;;5096825;28;20024;-82
2023/08/30 00:02:47;;;;;;;1.77;1.33;;;19.70;90.80;;;;;;5097057;28;20024;-86
2023/08/30 00:05:13;;;;;;;3.25;2.30;;;19.70;90.70;;;;;;5096734;28;20534;-86
2023/08/30 00:07:39;;;;;;;3.28;1.75;;;19.70;90.70;;;;;;5096665;28;20028;-87
2023/08/30 00:10:10;;;;;;;2.38;1.67;;;19.70;90.80;;;;;;5095804;28;20170;-86
2023/08/30 00:12:36;;;;;;;1.90;1.58;;;19.60;90.90;;;;;;5096555;28;20032;-85
2023/08/30 00:15:02;;;;;;;1.33;1.15;;;19.60;90.80;;;;;;5096521;28;20056;-86
2023/08/30 00:17:27;;;;;;;2.17;1.60;;;19.60;90.80;;;;;;5096446;28;20114;-87
2023/08/30 00:19:55;;;;;;;6.30;3.25;;;19.60;90.90;;;;;;5096268;28;20043;-86
2023/08/30 00:22:22;;;;;;;2.75;1.70;;;19.60;90.80;;;;;;5096221;28;20066;-86
2023/08/30 00:24:47;;;;;;;2.67;2.42;;;19.60;90.80;;;;;;5096415;28;20028;-86
2023/08/30 00:27:13;;;;;;;2.53;1.40;;;19.60;90.90;;;;;;5095946;28;20111;-86
2023/08/30 00:29:39;;;;;;;2.28;1.90;;;19.60;91.00;;;;;;5095025;28;20065;-87
2023/08/30 00:32:05;;;;;;;3.90;2.17;;;19.50;91.00;;;;;;5096272;28;20466;-86
2023/08/30 00:34:30;;;;;;;2.75;2.00;;;19.50;91.10;;;;;;5094543;28;20063;-83
2023/08/30 00:36:56;;;;;;;2.55;1.73;;;19.50;91.00;;;;;;5095018;28;20078;-85
2023/08/30 00:39:21;;;;;;;2.40;2.20;;;19.50;91.10;;;;;;5094876;28;20031;-86
2023/08/30 00:41:48;;;;;;;3.13;1.85;;;19.50;91.10;;;;;;5094855;28;20056;-86
2023/08/30 00:44:13;;;;;;;2.67;2.30;;;19.50;91.10;;;;;;5095961;28;20031;-86
2023/08/30 00:46:39;;;;;;;2.25;1.77;;;19.50;91.20;;;;;;5095993;28;20032;-86
2023/08/30 00:49:06;;;;;;;2.30;2.10;;;19.50;91.10;;;;;;5095567;28;20032;-85
2023/08/30 00:51:32;;;;;;;3.72;2.47;;;19.50;91.10;;;;;;5095727;28;20039;-86
2023/08/30 00:53:59;;;;;;;2.20;2.00;;;19.50;91.00;;;;;;5095775;28;20138;-85
2023/08/30 00:56:27;;;;;;;2.75;1.88;;;19.40;91.00;;;;;;5095678;28;20487;-84
2023/08/30 00:58:54;;;;;;;2.92;1.85;;;19.40;91.00;;;;;;5094974;28;20380;-85
2023/08/30 01:01:19;;;;;;;3.28;1.88;;;19.40;91.00;;;;;;5094270;28;20051;-84
2023/08/30 01:03:45;;;;;;;3.03;1.70;;;19.30;90.90;;;;;;5094779;28;20032;-82
2023/08/30 01:06:11;;;;;;;2.55;1.60;;;19.30;91.20;;;;;;5095037;28;20070;-83
2023/08/30 01:08:37;;;;;;;2.03;1.15;;;19.30;91.10;;;;;;5094976;28;20123;-80
2023/08/30 01:11:24;;;;;;;3.08;2.35;;;19.30;91.30;;;;;;5096390;28;20486;-84
2023/08/30 01:14:04;;;;;;;4.53;2.25;;;19.30;91.20;;;;;;5095449;28;20079;-83
2023/08/30 01:16:31;;;;;;;2.92;2.05;;;19.30;91.20;;;;;;5095384;28;20097;-85
2023/08/30 01:18:59;;;;;;;2.28;1.83;;;19.30;91.20;;;;;;5095039;28;20548;-84
2023/08/30 01:22:03;;;;;;;3.15;1.90;;;19.20;91.20;;;;;;5094211;28;20036;-85
2023/08/30 01:24:48;;;;;;;2.88;1.90;;;19.20;91.30;;;;;;5076699;28;20123;-79
2023/08/30 01:27:16;;;;;;;3.45;1.95;;;19.20;91.20;;;;;;5095474;28;20020;-85
2023/08/30 01:29:46;;;;;;;3.70;2.95;;;19.20;91.20;;;;;;5093810;28;20043;-80
2023/08/30 01:32:12;;;;;;;3.58;2.50;;;19.20;91.20;;;;;;5095613;28;20110;-85
2023/08/30 01:34:39;;;;;;;2.88;1.63;;;19.10;91.00;;;;;;5094705;28;20098;-85
2023/08/30 01:37:08;;;;;;;3.30;1.60;;;19.10;91.20;;;;;;5094884;28;20046;-81
2023/08/30 01:39:40;;;;;;;2.85;2.22;;;19.10;91.30;;;;;;5093906;28;20032;-85
2023/08/30 01:42:08;;;;;;;4.75;2.50;;;19.10;91.50;;;;;;5094572;28;20032;-84
2023/08/30 01:44:34;;;;;;;2.58;1.60;;;19.10;91.40;;;;;;5095281;28;20039;-85
2023/08/30 01:47:00;;;;;;;4.03;2.28;;;19.10;91.40;;;;;;5094723;28;20024;-85
2023/08/30 01:49:31;;;;;;;1.85;1.67;;;19.10;91.50;;;;;;5094625;28;20016;-85
2023/08/30 01:51:57;;;;;;;1.98;1.58;;;19.10;91.60;;;;;;5094932;28;20036;-76
2023/08/30 01:54:25;;;;;;;3.13;2.00;;;19.10;91.60;;;;;;5094546;28;20547;-76
2023/08/30 01:56:51;;;;;;;2.75;2.50;;;19.10;91.60;;;;;;5094559;28;20029;-76
2023/08/30 01:59:16;;;;;;;4.13;2.33;;;19.10;91.40;;;;;;5094233;28;20032;-75
2023/08/30 02:01:42;;;;;;;2.10;1.85;;;19.10;91.40;;;;;;5094109;28;20024;-76
2023/08/30 02:04:08;;;;;;;2.95;2.45;;;19.10;91.50;;;;;;5094901;28;20369;-76
2023/08/30 02:06:45;;;;;;;3.50;1.70;;;19.10;91.60;;;;;;5094094;28;20476;-76
2023/08/30 02:09:49;;;;;;;1.63;1.33;;;19.20;91.70;;;;;;5094250;28;20078;-75
2023/08/30 02:12:16;;;;;;;5.68;3.40;;;19.20;91.60;;;;;;5059767;28;20055;-75
2023/08/30 02:14:46;;;;;;;3.50;2.50;;;19.10;91.10;;;;;;5094734;28;20036;-75
2023/08/30 02:17:14;;;;;;;3.72;1.80;;;19.00;91.20;;;;;;5092868;28;20024;-75
2023/08/30 02:19:41;;;;;;;3.65;2.70;;;19.00;91.40;;;;;;5094033;28;20031;-75
2023/08/30 02:22:07;;;;;;;3.15;1.98;;;19.00;91.40;;;;;;5094300;28;20379;-75
2023/08/30 02:24:32;;;;;;;3.53;2.97;;;19.10;91.40;;;;;;5092465;28;20032;-75
2023/08/30 02:26:58;;;;;;;4.82;4.00;;;19.10;91.30;;;;;;5094303;28;20028;-75
2023/08/30 02:29:24;;;;;;;6.20;3.35;;;19.10;91.00;;;;;;5093587;28;20115;-75
2023/08/30 02:31:49;;;;;;;2.80;2.25;;;19.00;90.60;;;;;;5092732;28;20052;-75
2023/08/30 02:34:15;;;;;;;6.40;3.60;;;19.00;90.50;;;;;;5093637;28;20070;-75
2023/08/30 02:36:41;;;;;;;4.93;3.10;;;19.00;90.80;;;;;;5094494;28;20516;-76
2023/08/30 02:39:06;;;;;;;2.92;2.05;;;19.00;90.60;;;;;;5092357;28;20330;-76
2023/08/30 02:41:32;;;;;;;3.35;2.20;;;19.00;90.80;;;;;;5093856;28;20025;-76
2023/08/30 02:43:57;;;;;;;5.18;3.65;;;19.00;91.00;;;;;;5092574;28;20032;-76
2023/08/30 02:46:23;;;;;;;2.97;2.30;;;19.00;90.60;;;;;;5092314;28;20028;-76
2023/08/30 02:48:49;;;;;;;4.43;3.08;;;19.00;90.80;;;;;;5092445;28;20123;-77
2023/08/30 02:51:15;;;;;;;4.10;3.70;;;19.00;90.80;;;;;;5093274;28;20040;-76
2023/08/30 02:53:40;;;;;;;4.57;3.40;;;19.00;90.80;;;;;;5093362;28;20480;-76
2023/08/30 02:56:06;;;;;;;4.22;3.03;;;19.00;90.60;;;;;;5093484;28;20055;-75
2023/08/30 02:58:32;;;;;;;6.35;5.30;;;18.90;90.30;;;;;;5093062;28;20035;-77
2023/08/30 03:00:58;;;;;;;3.63;3.30;;;18.90;90.10;;;;;;5093577;28;20373;-75
2023/08/30 03:03:23;;;;;;;4.85;3.85;;;18.80;90.00;;;;;;5093606;28;20376;-76
2023/08/30 03:05:49;;;;;;;3.17;2.88;;;18.80;90.10;;;;;;5075161;28;20492;-76
2023/08/30 03:08:15;;;;;;;3.78;2.92;;;18.80;90.30;;;;;;5092098;28;20037;-76
2023/08/30 03:10:40;;;;;;;4.93;2.75;;;18.80;90.50;;;;;;5092126;28;20036;-76
2023/08/30 03:13:06;;;;;;;4.97;4.13;;;18.80;90.60;;;;;;5093432;28;20024;-76
2023/08/30 03:15:33;;;;;;;5.65;3.13;;;18.80;90.50;;;;;;5092024;28;20384;-76
2023/08/30 03:18:00;;;;;;;3.80;2.97;;;18.80;90.70;;;;;;5093437;28;20029;-76
2023/08/30 03:20:26;;;;;;;3.58;3.22;;;18.80;90.70;;;;;;5093655;28;20059;-76
2023/08/30 03:22:51;;;;;;;7.78;5.40;;;18.80;90.70;;;;;;5093283;28;20035;-76
2023/08/30 03:25:17;;;;;;;5.10;4.25;;;18.80;90.40;;;;;;5093925;28;20032;-76
2023/08/30 03:27:45;;;;;;;7.32;5.25;;;18.70;90.30;;;;;;5093147;28;20515;-76
2023/08/30 03:30:11;;;;;;;4.88;4.07;;;18.60;89.80;;;;;;5079188;28;20437;-77
2023/08/30 03:32:37;;;;;;;5.32;3.92;;;18.60;90.10;;;;;;5097062;28;20112;-76
2023/08/30 03:35:03;;;;;;;3.20;2.60;;;18.50;90.30;;;;;;5097017;28;20139;-76
2023/08/30 03:37:29;;;;;;;3.45;2.97;;;18.60;90.50;;;;;;5095927;28;20032;-77
2023/08/30 03:39:55;;;;;;;3.72;3.10;;;18.60;90.90;;;;;;5097463;28;20031;-77
2023/08/30 03:42:20;;;;;;;2.95;2.33;;;18.60;91.20;;;;;;5078607;28;20031;-77
2023/08/30 03:44:46;;;;;;;5.30;4.80;;;18.60;91.30;;;;;;5097047;28;20028;-77
2023/08/30 03:47:11;;;;;;;3.50;2.85;;;18.60;91.20;;;;;;5097084;28;20456;-77
2023/08/30 03:49:37;;;;;;;5.22;3.92;;;18.60;91.00;;;;;;5096935;28;20043;-77
2023/08/30 03:52:03;;;;;;;5.53;3.70;;;18.60;91.00;;;;;;5095551;28;20039;-78
2023/08/30 03:54:29;;;;;;;3.97;3.53;;;18.60;91.10;;;;;;5096894;28;20024;-75
2023/08/30 03:56:54;;;;;;;4.20;2.72;;;18.60;91.20;;;;;;5096847;28;20036;-75
2023/08/30 03:59:22;;;;;;;3.47;3.17;;;18.60;91.20;;;;;;5095498;28;20024;-76
2023/08/30 04:01:48;;;;;;;3.97;3.33;;;18.70;91.30;;;;;;5079107;28;20342;-76
2023/08/30 04:04:14;;;;;;;4.60;3.58;;;18.70;91.40;;;;;;5096642;28;20078;-76
2023/08/30 04:06:40;;;;;;;4.45;3.13;;;18.70;91.50;;;;;;5097225;28;20055;-76
2023/08/30 04:09:06;;;;;;;3.75;3.05;;;18.70;91.50;;;;;;5097093;28;20464;-76
2023/08/30 04:11:32;;;;;;;5.63;3.50;;;18.80;91.50;;;;;;5096752;28;20042;-75
2023/08/30 04:13:58;;;;;;;4.47;3.38;;;18.70;91.40;;;;;;5079219;28;20032;-76
2023/08/30 04:16:23;;;;;;;4.22;3.33;;;18.70;91.40;;;;;;5095572;28;20031;-76
2023/08/30 04:18:52;;;;;;;3.08;2.75;;;18.60;91.30;;;;;;5095652;28;20080;-78
2023/08/30 04:21:17;;;;;;;2.45;2.25;;;18.60;91.40;;;;;;5095085;28;20111;-76
2023/08/30 04:23:43;;;;;;;5.95;3.42;;;18.60;91.50;;;;;;5096577;28;20109;-75
2023/08/30 04:26:09;;;;;;;3.22;2.70;;;18.60;91.60;;;;;;5095800;28;20031;-75
2023/08/30 04:28:34;;;;;;;4.20;3.20;;;18.60;91.50;;;;;;5096192;28;20036;-75
2023/08/30 04:31:00;;;;;;;4.28;3.38;;;18.60;91.60;;;;;;5096099;28;20028;-75
2023/08/30 04:33:25;;;;;;;3.88;3.42;;;18.70;91.70;;;;;;5095897;28;20073;-75
2023/08/30 04:35:52;;;;;;;3.58;2.72;;;18.70;91.70;;;;;;5094518;28;20131;-75
2023/08/30 04:38:18;;;;;;;3.92;2.65;;;18.70;91.70;;;;;;5096559;28;20082;-76
2023/08/30 04:40:43;;;;;;;5.13;4.10;;;18.60;91.90;;;;;;5094508;28;20033;-76
2023/08/30 04:43:09;;;;;;;5.97;3.78;;;18.60;91.60;;;;;;5095539;28;20023;-76
2023/08/30 04:45:35;;;;;;;4.47;3.15;;;18.60;91.60;;;;;;5095977;28;20028;-77
2023/08/30 04:48:01;;;;;;;4.28;3.15;;;18.60;91.60;;;;;;5094498;28;20020;-76
2023/08/30 04:50:26;;;;;;;3.08;2.40;;;18.60;91.80;;;;;;5095977;28;20109;-76
2023/08/30 04:52:52;;;;;;;4.03;3.00;;;18.60;91.70;;;;;;5095699;28;20460;-77
2023/08/30 04:55:18;;;;;;;3.97;3.08;;;18.60;91.70;;;;;;5094359;28;20029;-76
2023/08/30 04:57:47;;;;;;;5.78;3.70;;;18.70;91.70;;;;;;5095646;28;20416;-77
2023/08/30 05:00:14;;;;;;;4.47;3.58;;;18.70;91.60;;;;;;5095753;28;20036;-76
2023/08/30 05:02:40;;;;;;;6.25;3.60;;;18.70;91.60;;;;;;5095575;28;20023;-76
2023/08/30 05:05:07;;;;;;;4.75;3.70;;;18.60;91.50;;;;;;5095678;28;20036;-76
2023/08/30 05:07:32;;;;;;;4.25;3.50;;;18.60;91.60;;;;;;5096059;28;20032;-76
2023/08/30 05:09:58;;;;;;;3.65;2.80;;;18.60;91.70;;;;;;5095378;28;20054;-76
2023/08/30 05:12:24;;;;;;;3.65;3.10;;;18.60;91.60;;;;;;5095110;28;20028;-76
2023/08/30 05:14:49;;;;;;;3.50;2.83;;;18.60;91.70;;;;;;5095332;28;20448;-76
2023/08/30 05:17:15;;;;;;;3.92;3.13;;;18.60;91.80;;;;;;5077365;28;20105;-76
2023/08/30 05:19:40;;;;;;;3.50;2.83;;;18.60;91.80;;;;;;5093963;28;20534;-76
2023/08/30 05:22:07;;;;;;;2.85;2.33;;;18.60;91.80;;;;;;5077314;28;20077;-77
2023/08/30 05:24:33;;;;;;;4.10;3.20;;;18.60;91.90;;;;;;5093777;28;20024;-76
2023/08/30 05:26:59;;;;;;;4.13;3.47;;;18.70;91.80;;;;;;5095018;28;20067;-77
2023/08/30 05:29:25;;;;;;;4.80;3.55;;;18.60;91.80;;;;;;5094953;28;20063;-77
2023/08/30 05:31:51;;;;;;;4.22;3.50;;;18.60;91.80;;;;;;5094954;28;20039;-77
2023/08/30 05:34:16;;;;;;;3.30;2.47;;;18.60;91.80;;;;;;5093349;28;20388;-76
2023/08/30 05:36:42;;;;;;;3.65;2.72;;;18.70;91.70;;;;;;5095013;28;20106;-77
2023/08/30 05:39:07;;;;;;;3.75;3.00;;;18.70;91.70;;;;;;5094913;28;20032;-77
2023/08/30 05:41:33;;;;;;;7.53;5.70;;;18.70;91.40;;;;;;5094581;28;20043;-77
2023/08/30 05:43:59;;;;;;;5.72;4.35;;;18.70;91.10;;;;;;5093652;28;20058;-77
2023/08/30 05:46:25;;;;;;;3.47;2.90;;;18.60;91.00;;;;;;5094470;28;20032;-77
2023/08/30 05:48:50;;;;;;;7.93;2.60;;;18.50;91.30;;;;;;5096363;28;20346;-78
2023/08/30 05:51:16;;;;;;;4.50;2.83;;;18.50;91.50;;;;;;5098524;28;20039;-79
2023/08/30 05:53:42;;;;;;;6.35;3.78;;;18.60;91.90;;;;;;5100963;28;20028;-79
2023/08/30 05:56:07;;;;;;;5.80;4.50;;;18.70;92.00;;;;;;5100334;28;20097;-78
2023/08/30 05:58:33;;;;;;;6.68;4.32;;;18.70;92.00;;;;;;5100346;28;20035;-79
2023/08/30 06:01:03;;;;;;;4.38;3.13;;;18.70;91.80;;;;;;5102626;28;20472;-80
2023/08/30 06:03:28;;;;;;;4.55;3.45;;;18.80;91.80;;;;;;5099578;28;20069;-79
2023/08/30 06:05:54;;;;;;;8.85;6.18;;;18.80;91.80;;;;;;5096442;28;20039;-78
2023/08/30 06:08:20;;;;;;;6.43;4.65;;;18.70;90.70;;;;;;5076366;28;20036;-78
2023/08/30 06:10:46;;;;;;;6.53;3.90;;;18.70;91.10;;;;;;5094585;28;20078;-77
2023/08/30 06:13:12;;;;;;;6.03;4.18;;;18.70;91.20;;;;;;5094698;28;20032;-77
2023/08/30 06:15:38;;;;;;;8.68;4.18;;;18.70;91.30;;;;;;5092998;28;20024;-78
2023/08/30 06:18:04;;;;;;;8.25;5.32;;;18.70;91.40;;;;;;5092813;28;20081;-77
2023/08/30 06:20:30;;;;;;;7.65;4.25;;;18.80;91.10;;;;;;5093673;28;20407;-77
2023/08/30 06:22:58;;;;;;;5.15;3.45;;;18.80;91.30;;;;;;5094228;28;20024;-76
2023/08/30 06:25:24;;;;;;;4.90;4.13;;;18.80;91.50;;;;;;5094021;28;20024;-76
2023/08/30 06:27:58;;;;;;;6.82;3.60;;;18.90;91.60;;;;;;5093057;28;20028;-77
2023/08/30 06:30:29;;;;;;;7.50;4.82;;;18.90;91.60;;;;;;5092600;28;20032;-75
2023/08/30 06:32:55;;;;;;;3.30;3.00;;;18.90;91.30;;;;;;5092500;28;20380;-74
2023/08/30 06:35:21;;;;;;;4.75;3.17;;;18.80;91.50;;;;;;5094020;28;20059;-77
2023/08/30 06:37:47;;;;;;;3.20;2.70;;;18.90;91.80;;;;;;5079008;28;20028;-77
2023/08/30 06:40:13;;;;;;;4.25;3.47;;;18.90;92.10;;;;;;5098737;28;20055;-78
2023/08/30 06:42:38;;;;;;;5.28;3.70;;;18.90;92.10;;;;;;5094838;28;20064;-78
2023/08/30 06:45:04;;;;;;;5.75;2.85;;;18.90;92.00;;;;;;5104515;28;20050;-79
2023/08/30 06:47:30;;;;;;;3.97;2.60;;;18.90;92.30;;;;;;5101230;28;20030;-78
2023/08/30 06:49:57;;;;;;;5.03;2.83;;;19.00;92.40;;;;;;5098860;28;20036;-78
2023/08/30 06:52:23;;;;;;;4.55;3.00;;;19.10;92.50;;;;;;5100362;28;20020;-78
2023/08/30 06:54:48;;;;;;;4.32;2.85;;;19.10;92.50;;;;;;5095767;28;20081;-79
2023/08/30 06:57:14;;;;;;;5.53;2.92;;;19.20;92.60;;;;;;5096261;28;20115;-80
2023/08/30 06:59:40;;;;;;;3.70;2.78;;;19.20;92.50;;;;;;5096428;28;20028;-79
2023/08/30 07:02:06;;;;;;;5.88;3.72;;;19.30;92.50;;;;;;5096756;28;20103;-79
2023/08/30 07:04:31;;;;;;;6.43;3.80;;;19.30;92.50;;;;;;5101456;28;20036;-78
2023/08/30 07:06:57;;;;;;;4.25;3.00;;;19.30;92.50;;;;;;5103887;28;20036;-79
2023/08/30 07:09:28;;;;;;;7.00;4.47;;;19.30;92.50;;;;;;5099097;28;20028;-79
2023/08/30 07:11:54;;;;;;;5.30;3.83;;;19.30;92.30;;;;;;5105271;28;20058;-78
2023/08/30 07:14:20;;;;;;;8.48;4.97;;;19.30;92.10;;;;;;5079600;28;20031;-78
2023/08/30 07:16:46;;;;;;;10.25;5.88;;;19.30;91.70;;;;;;5098980;28;20035;-78
2023/08/30 07:19:11;;;;;;;5.65;3.72;;;19.20;91.50;;;;;;5097726;28;20456;-80
2023/08/30 07:21:38;;;;;;;7.05;4.85;;;19.10;91.70;;;;;;5097784;28;20035;-78
2023/08/30 07:24:06;;;;;;;5.72;4.82;;;19.10;91.90;;;;;;5097370;28;20519;-78
2023/08/30 07:26:31;;;;;;;5.95;4.82;;;19.00;92.10;;;;;;5099662;28;20040;-78
2023/08/30 07:28:57;;;;;;;7.55;4.07;;;18.90;92.20;;;;;;5100884;28;20032;-79
2023/08/30 07:31:23;;;;;;;5.93;3.80;;;18.90;92.40;;;;;;5099308;28;20388;-78
2023/08/30 07:33:48;;;;;;;7.78;5.05;;;18.80;92.60;;;;;;5101108;28;20024;-78
2023/08/30 07:36:14;;;;;;;9.25;4.32;;;18.80;92.90;;;;;;5106974;28;20048;-78
2023/08/30 07:38:39;;;;;;;6.13;4.43;;;18.70;93.00;;;;;;5108126;28;20051;-78
2023/08/30 07:41:05;;;;;;;6.72;3.85;;;18.70;93.20;;;;;;5105946;28;20096;-78
2023/08/30 07:43:31;;;;;;;7.70;5.38;;;18.70;93.30;;;;;;5107245;28;20039;-80
2023/08/30 07:45:57;;;;;;;6.72;4.88;;;18.60;93.60;;;;;;5099932;28;20028;-78
2023/08/30 07:48:23;;;;;;;8.63;5.32;;;18.50;93.70;;;;;;5099565;28;20028;-78
2023/08/30 07:50:49;;;;;;;8.30;5.60;;;18.50;93.90;;;;;;5098121;28;20044;-78
2023/08/30 07:53:15;;;;;;;5.97;4.32;;;18.50;94.20;;;;;;5081947;28;20040;-77
2023/08/30 07:55:40;;;;;;;4.90;3.90;;;18.30;94.40;;;;;;5101071;28;20051;-77
2023/08/30 07:58:08;;;;;;;6.80;4.05;;;18.30;94.60;;;;;;5099480;28;20055;-78
2023/08/30 08:00:34;;;;;;;6.60;4.72;;;18.30;94.60;;;;;;5096925;28;20028;-77
2023/08/30 08:03:00;;;;;;;6.45;5.03;;;18.30;94.70;;;;;;5096424;28;20028;-76
2023/08/30 08:05:26;;;;;;;7.22;4.82;;;18.20;94.80;;;;;;5096243;28;20085;-75
2023/08/30 08:07:52;;;;;;;7.40;3.78;;;18.20;94.90;;;;;;5098212;28;20051;-76
2023/08/30 08:10:19;;;;;;;4.03;3.08;;;18.10;94.90;;;;;;5096810;28;20036;-77
2023/08/30 08:12:45;;;;;;;7.22;4.40;;;18.10;94.90;;;;;;5095653;28;20032;-77
2023/08/30 08:15:10;;;;;;;4.63;3.83;;;18.00;95.20;;;;;;5096683;28;20027;-77
2023/08/30 08:17:36;;;;;;;5.63;3.45;;;18.00;95.40;;;;;;5095548;28;20468;-76
2023/08/30 08:20:04;;;;;;;5.10;3.20;;;18.00;95.40;;;;;;5096769;28;20033;-77
2023/08/30 08:22:29;;;;;;;6.20;2.70;;;18.10;95.60;;;;;;5098436;28;20024;-78
2023/08/30 08:24:56;;;;;;;4.35;3.30;;;18.20;95.60;;;;;;5095258;28;20086;-77
2023/08/30 08:27:22;;;;;;;5.07;3.28;;;18.20;95.70;;;;;;5096922;28;20028;-78
2023/08/30 08:29:47;;;;;;;3.70;3.05;;;18.20;95.70;;;;;;5095648;28;20036;-77
2023/08/30 08:32:13;;;;;;;4.25;2.92;;;18.20;95.60;;;;;;5096771;28;20081;-77
2023/08/30 08:34:38;;;;;;;4.10;3.10;;;18.20;95.70;;;;;;5095414;28;20048;-77
2023/08/30 08:37:04;;;;;;;7.55;3.47;;;18.10;95.80;;;;;;5096427;28;20389;-78
2023/08/30 08:39:31;;;;;;;7.97;4.25;;;18.10;96.00;;;;;;5095950;28;20080;-78
2023/08/30 08:41:58;;;;;;;8.35;3.40;;;18.20;96.20;;;;;;5098747;28;20053;-77
2023/08/30 08:44:27;;;;;;;4.53;3.42;;;18.20;96.00;;;;;;5097741;28;20042;-78
2023/08/30 08:46:53;;;;;;;3.95;2.63;;;18.10;96.10;;;;;;5097210;28;20106;-79
2023/08/30 08:49:19;;;;;;;5.88;3.60;;;18.20;96.20;;;;;;5098331;28;20504;-79
2023/08/30 08:51:45;;;;;;;5.13;2.75;;;18.20;96.30;;;;;;5096262;28;20435;-79
2023/08/30 08:54:12;;;;;;;5.85;3.45;;;18.20;96.30;;;;;;5097361;28;20483;-78
2023/08/30 08:56:39;;;;;;;5.25;3.35;;;18.20;96.20;;;;;;5096452;28;20026;-80
2023/08/30 08:59:08;;;;;;;6.22;3.70;;;18.20;96.20;;;;;;5096012;28;20077;-78
2023/08/30 09:01:35;;;;;;;5.22;2.83;;;18.30;96.30;;;;;;5098451;28;20024;-78
2023/08/30 09:04:11;;;;;;;7.93;5.07;;;18.20;96.20;;;;;;5100975;28;20039;-77
2023/08/30 09:06:39;;;;;;;5.88;3.75;;;18.30;96.30;;;;;;5100872;28;20103;-78
2023/08/30 09:09:05;;;;;;;9.65;4.95;;;18.30;96.20;;;;;;5100352;28;20027;-78
2023/08/30 09:11:32;;;;;;;6.18;3.90;;;18.30;96.30;;;;;;5100574;28;20040;-78
2023/08/30 09:13:58;;;;;;;10.40;4.70;;;18.20;96.40;;;;;;5100232;28;20036;-78
2023/08/30 09:16:23;;;;;;;7.75;3.80;;;18.20;96.60;;;;;;5100040;28;20098;-78
2023/08/30 09:19:20;;;;;;;6.07;3.95;;;18.20;96.60;;;;;;5098313;28;20032;-77
2023/08/30 09:21:58;;;;;;;8.93;5.28;;;18.10;96.60;;;;;;5097407;28;20480;-77
2023/08/30 09:24:25;;;;;;;9.75;5.18;;;18.20;96.80;;;;;;5097191;28;20020;-79
2023/08/30 09:26:53;;;;;;;10.68;4.75;;;18.10;96.80;;;;;;5094976;28;20028;-78
2023/08/30 09:29:19;;;;;;;9.27;4.70;;;18.10;96.90;;;;;;5094232;28;20032;-77
2023/08/30 09:31:46;;;;;;;5.50;3.40;;;18.10;97.10;;;;;;5095771;28;20047;-77
2023/08/30 09:34:12;;;;;;;6.07;3.95;;;18.10;97.10;;;;;;5095606;28;20032;-79
2023/08/30 09:36:39;;;;;;;7.90;4.03;;;18.10;97.20;;;;;;5094807;28;20024;-79
2023/08/30 09:39:05;;;;;;;5.53;4.30;;;18.10;97.40;;;;;;5096324;28;20020;-81
2023/08/30 09:41:32;;;;;;;6.90;4.47;;;18.00;97.50;;;;;;5100403;28;20050;-78
2023/08/30 09:44:00;;;;;;;7.00;4.57;;;18.00;97.60;;;;;;5081118;28;20330;-79
2023/08/30 09:46:26;;;;;;;7.90;3.47;;;18.00;97.70;;;;;;5094462;28;20027;-78
2023/08/30 09:48:54;;;;;;;5.13;3.58;;;17.90;97.80;;;;;;5095956;28;20350;-78
2023/08/30 09:51:22;;;;;;;6.57;4.25;;;17.90;98.00;;;;;;5078212;28;20117;-78
2023/08/30 09:53:50;;;;;;;5.70;3.25;;;17.80;98.20;;;;;;5096690;28;20028;-79
2023/08/30 09:56:17;;;;;;;5.25;2.90;;;17.80;98.40;;;;;;5099291;28;20163;-80
2023/08/30 09:58:44;;;;;;;3.30;2.50;;;17.80;98.60;;;;;;5093621;28;20020;-78
2023/08/30 10:01:11;;;;;;;2.90;2.53;;;17.90;98.70;;;;;;5093911;28;20028;-77
2023/08/30 10:03:37;;;;;;;3.72;3.33;;;17.90;98.70;;;;;;5093576;28;20467;-82
2023/08/30 10:06:05;;;;;;;8.77;3.88;;;18.00;98.80;;;;;;5093949;28;20036;-80
2023/08/30 10:08:33;;;;;;;5.60;3.70;;;18.00;98.80;;;;;;5100335;28;20028;-78
2023/08/30 10:11:00;;;;;;;5.43;3.33;;;17.90;98.90;;;;;;5102802;28;20039;-79
2023/08/30 10:13:26;;;;;;;6.47;3.72;;;17.90;99.10;;;;;;5095671;28;20044;-76
2023/08/30 10:15:58;;;;;;;6.72;3.50;;;17.90;99.30;;;;;;5093255;28;20028;-79
2023/08/30 10:18:28;;;;;;;4.18;3.20;;;17.90;99.40;;;;;;5095114;28;20381;-77
2023/08/30 10:20:55;;;;;;;3.67;2.42;;;17.90;99.60;;;;;;5098548;28;20480;-79
2023/08/30 10:23:22;;;;;;;5.82;2.70;;;17.90;99.70;;;;;;5100069;28;20106;-78
2023/08/30 10:25:49;;;;;;;4.03;3.63;;;17.90;99.90;;;;;;5100781;28;20028;-81
2023/08/30 10:28:17;;;;;;;3.45;3.03;;;18.00;99.90;;;;;;5104278;28;20054;-81
2023/08/30 10:30:43;;;;;;;5.85;3.80;;;18.00;99.90;;;;;;5098260;28;20473;-78
2023/08/30 10:33:13;;;;;;;5.43;4.10;;;18.00;99.90;;;;;;5100902;28;20032;-80
2023/08/30 10:35:51;;;;;;;3.70;3.33;;;18.00;99.90;;;;;;5102235;28;20055;-78
2023/08/30 10:38:32;;;;;;;7.13;3.88;;;18.00;99.90;;;;;;5103553;28;20032;-78
2023/08/30 10:41:07;;;;;;;5.18;4.68;;;18.00;99.90;;;;;;5104438;28;20569;-78
2023/08/30 10:43:36;;;;;;;4.45;3.17;;;18.10;99.90;;;;;;5107120;28;20035;-78
2023/08/30 10:46:03;;;;;;;3.80;3.08;;;18.10;99.90;;;;;;5102940;28;20012;-80
2023/08/30 10:48:39;;;;;;;5.32;2.58;;;18.20;99.90;;;;;;5104045;28;20039;-79
2023/08/30 10:51:15;;;;;;;5.53;4.55;;;18.20;99.90;;;;;;5095125;28;20535;-81
2023/08/30 10:53:41;;;;;;;4.95;4.13;;;18.20;99.90;;;;;;5095481;28;20025;-81
2023/08/30 10:56:10;;;;;;;4.88;3.58;;;18.20;99.90;;;;;;5095774;28;20032;-81
2023/08/30 10:58:42;;;;;;;6.22;3.42;;;18.30;99.90;;;;;;5095600;28;20068;-80
2023/08/30 11:01:13;;;;;;;3.83;2.53;;;18.30;99.90;;;;;;5096438;28;20039;-80
2023/08/30 11:03:41;;;;;;;8.30;5.35;;;18.30;99.90;;;;;;5095097;28;20028;-81
2023/08/30 11:06:07;;;;;;;5.20;4.72;;;18.30;99.90;;;;;;5094080;28;20050;-81
2023/08/30 11:08:35;;;;;;;7.80;6.65;;;18.40;99.90;;;;;;5076663;28;20028;-81
2023/08/30 11:11:11;;;;;;;4.40;3.22;;;18.30;99.90;;;;;;5093801;28;20417;-81
2023/08/30 11:13:37;;;;;;;6.65;5.30;;;18.30;99.90;;;;;;5094682;28;20056;-81
2023/08/30 11:16:04;;;;;;;7.65;6.45;;;18.50;99.90;;;;;;5094722;28;20376;-81
2023/08/30 11:18:30;;;;;;;5.75;5.15;;;18.60;99.90;;;;;;5076350;28;20027;-81
2023/08/30 11:21:02;;;;;;;6.60;5.03;;;18.70;99.90;;;;;;5094419;28;20063;-81
2023/08/30 11:23:29;;;;;;;6.80;6.07;;;18.70;99.90;;;;;;5095039;28;20103;-80
2023/08/30 11:25:54;;;;;;;7.40;6.70;;;18.70;99.90;;;;;;5098630;28;20028;-80
2023/08/30 11:28:24;;;;;;;9.50;8.63;;;18.70;99.90;;;;;;5095033;28;20123;-81
2023/08/30 11:30:54;;;;;;;8.35;7.60;;;18.60;99.90;;;;;;5094990;28;20043;-80
2023/08/30 11:33:20;;;;;;;7.50;6.82;;;18.60;99.90;;;;;;5098095;28;20032;-80
2023/08/30 11:35:49;;;;;;;8.27;7.38;;;18.50;99.90;;;;;;5110017;28;20127;-82
2023/08/30 11:38:15;;;;;;;7.80;7.10;;;18.50;99.90;;;;;;5103975;28;20115;-81
2023/08/30 11:40:41;;;;;;;6.60;5.88;;;18.40;99.90;;;;;;5076678;28;20395;-82
2023/08/30 11:43:07;;;;;;;7.20;5.25;;;18.40;99.90;;;;;;5093471;28;20457;-81
2023/08/30 11:45:34;;;;;;;5.68;4.85;;;18.40;99.90;;;;;;5094489;28;20032;-80
2023/08/30 11:48:00;;;;;;;4.32;4.03;;;18.50;99.90;;;;;;5094795;28;20146;-79
2023/08/30 11:50:27;;;;;;;8.80;4.05;;;18.50;99.90;;;;;;5082260;28;20077;-79
2023/08/30 11:52:53;;;;;;;5.55;3.40;;;18.60;99.90;;;;;;5099172;28;20073;-82
2023/08/30 11:55:21;;;;;;;6.25;3.22;;;18.80;99.90;;;;;;5097642;28;20028;-80
2023/08/30 11:57:50;;;;;;;3.20;2.88;;;19.00;99.90;;;;;;5097772;28;20465;-80
2023/08/30 12:00:19;;;;;;;4.60;3.00;;;19.10;99.70;;;;;;5083529;28;20099;-81
2023/08/30 12:02:46;;;;;;;3.05;2.28;;;19.20;98.30;;;;;;5102211;28;20106;-79
2023/08/30 12:05:13;;;;;;;5.80;2.03;;;19.20;98.20;;;;;;5103955;28;20020;-79
2023/08/30 12:07:40;;;;;;;5.03;2.53;;;19.40;98.40;;;;;;5104024;28;20024;-83
2023/08/30 12:10:11;;;;;;;4.15;1.88;;;19.60;97.60;;;;;;5098432;28;20028;-82
2023/08/30 12:12:37;;;;;;;3.75;2.00;;;19.70;96.20;;;;;;5106847;28;20016;-80
2023/08/30 12:15:14;;;;;;;5.88;2.20;;;19.60;96.10;;;;;;5091051;28;20054;-80
2023/08/30 12:17:39;;;;;;;3.55;2.00;;;19.50;95.80;;;;;;5105841;28;20020;-81
2023/08/30 12:20:06;;;;;;;5.30;2.22;;;19.50;95.90;;;;;;5108295;28;20431;-79
2023/08/30 12:22:39;;;;;;;3.67;1.55;;;19.40;95.40;;;;;;5109752;28;20032;-80
2023/08/30 12:25:26;;;;;;;4.53;1.70;;;19.20;95.70;;;;;;5103535;28;20411;-81
2023/08/30 12:27:52;;;;;;;4.80;1.50;;;19.20;95.40;;;;;;5089104;28;20118;-81
2023/08/30 12:30:19;;;;;;;5.10;1.23;;;19.10;95.30;;;;;;5113016;28;20119;-81
2023/08/30 12:32:45;;;;;;;4.97;1.23;;;19.00;94.80;;;;;;5110114;28;20099;-80
2023/08/30 12:35:11;;;;;;;5.43;1.40;;;19.00;94.90;;;;;;5097377;28;20063;-79
2023/08/30 12:37:37;;;;;;;3.88;1.27;;;19.20;95.00;;;;;;5078721;28;20036;-78
2023/08/30 12:40:03;;;;;;;4.82;1.10;;;19.20;95.20;;;;;;5095893;28;20059;-78
2023/08/30 12:42:29;;;;;;;3.50;1.60;;;19.30;95.20;;;;;;5078589;28;20071;-77
2023/08/30 12:44:54;;;;;;;7.68;1.60;;;19.30;95.00;;;;;;5094792;28;20036;-78